Terminal Aerodrome Forecast
Issued by NWS

Current Version | Previous Version | Graphics & Text | Print | Product List | Glossary On
Versions: 1 2 3 4 5 6 7 8 9 10 11 12 13 14 15 16 17 18 19 20 21 22 23 24 25 26
574
FTUS41 KILN 200425 AAB
TAFLUK
TAF AMD
KLUK 200425Z 2004/2024 00000KT P6SM SKC
      TEMPO 2005/2006 5SM BR OVC012
     FM200600 04004KT 5SM BR OVC009
      TEMPO 2008/2012 2SM BR OVC005
     FM201300 14005KT P6SM BKN035
     FM201900 18005KT P6SM VCTS SCT050CB BKN200=

USA.gov is the U.S. government's official web portal to all federal, state and local government web resources and services.